createdAt,value
2023-03-19T00:03:30.265Z,26.90
2023-03-19T00:05:58.326Z,27.00
2023-03-19T00:08:26.595Z,27.00
2023-03-19T00:10:55.148Z,27.00
2023-03-19T00:13:23.193Z,27.10
2023-03-19T00:18:37.016Z,27.10
2023-03-19T00:26:44.114Z,27.20
2023-03-19T00:29:13.053Z,27.20
2023-03-19T00:31:41.886Z,27.20
2023-03-19T00:34:10.138Z,27.20
2023-03-19T00:36:38.408Z,27.30
2023-03-19T00:39:06.797Z,27.30
2023-03-19T00:41:34.900Z,27.30
2023-03-19T00:44:04.012Z,27.30
2023-03-19T00:52:10.737Z,27.40
2023-03-19T00:54:38.760Z,27.50
2023-03-19T00:57:07.706Z,27.50
2023-03-19T00:59:36.653Z,27.50
2023-03-19T01:02:05.384Z,27.50
2023-03-19T01:04:33.510Z,27.50
2023-03-19T01:07:01.656Z,27.60
2023-03-19T01:09:29.814Z,27.60
2023-03-19T01:11:57.941Z,27.70
2023-03-19T01:14:26.300Z,27.70
2023-03-19T01:25:15.409Z,27.90
2023-03-19T01:30:41.098Z,28.00
2023-03-19T01:33:25.828Z,28.00
2023-03-19T01:36:06.284Z,28.10
2023-03-19T01:38:55.653Z,28.10
2023-03-19T01:41:28.090Z,28.10
2023-03-19T01:44:00.397Z,28.10
2023-03-19T01:49:33.102Z,28.30
2023-03-19T01:54:58.128Z,28.40
2023-03-19T02:00:29.791Z,28.50
2023-03-19T02:03:05.684Z,28.60
2023-03-19T02:11:12.266Z,28.70
2023-03-19T02:20:02.446Z,29.00
2023-03-19T02:22:32.337Z,29.10
2023-03-19T02:28:31.133Z,29.30
2023-03-19T02:34:29.949Z,29.30
2023-03-19T02:37:22.732Z,29.40
2023-03-19T02:40:13.098Z,29.50
2023-03-19T02:45:49.624Z,29.60
2023-03-19T02:57:01.593Z,29.70
2023-03-19T02:59:41.572Z,29.80
2023-03-19T03:02:21.836Z,29.80
2023-03-19T03:04:54.374Z,29.90
2023-03-19T03:07:25.250Z,30.10
2023-03-19T03:09:56.102Z,30.20
2023-03-19T03:23:29.138Z,30.60
2023-03-19T03:26:07.746Z,30.70
2023-03-19T03:28:40.368Z,30.80
2023-03-19T03:31:09.437Z,30.90
2023-03-19T03:33:52.958Z,30.90
2023-03-19T03:36:21.719Z,31.00
2023-03-19T03:38:58.933Z,31.10
2023-03-19T03:41:27.013Z,31.20
2023-03-19T03:44:10.538Z,31.20
2023-03-19T03:46:38.580Z,31.30
2023-03-19T03:49:06.794Z,31.40
2023-03-19T03:51:34.776Z,31.50
2023-03-19T03:54:06.261Z,31.60
2023-03-19T03:56:34.592Z,31.80
2023-03-19T03:59:02.715Z,31.90
2023-03-19T04:01:31.151Z,32.00
2023-03-19T04:03:59.939Z,32.10
2023-03-19T04:06:29.247Z,32.10
2023-03-19T04:08:58.108Z,32.20
2023-03-19T04:11:26.098Z,32.30
2023-03-19T04:14:01.264Z,32.30
2023-03-19T04:16:29.820Z,32.30
2023-03-19T04:18:58.080Z,32.40
2023-03-19T04:21:26.834Z,32.40
2023-03-19T04:23:54.833Z,32.40
2023-03-19T04:26:28.065Z,32.50
2023-03-19T04:28:56.272Z,32.50
2023-03-19T04:31:24.610Z,32.60
2023-03-19T04:33:52.755Z,32.70
2023-03-19T04:36:22.099Z,32.80
2023-03-19T04:38:55.922Z,32.80
2023-03-19T04:41:24.271Z,32.90
2023-03-19T04:44:15.054Z,32.90
2023-03-19T04:46:45.854Z,32.80
2023-03-19T04:49:14.532Z,32.90
2023-03-19T04:51:43.097Z,32.80
2023-03-19T04:54:11.753Z,32.90
2023-03-19T04:56:39.913Z,33.00
2023-03-19T04:59:08.193Z,33.10
2023-03-19T05:01:39.014Z,33.10
2023-03-19T05:04:09.941Z,33.20
2023-03-19T05:06:38.891Z,33.20
2023-03-19T05:09:08.797Z,33.20
2023-03-19T05:11:36.334Z,33.20
2023-03-19T05:17:30.220Z,33.40
2023-03-19T05:19:58.176Z,33.60
2023-03-19T05:22:26.796Z,33.60
2023-03-19T05:24:54.925Z,33.70
2023-03-19T05:27:22.942Z,33.70
2023-03-19T05:29:50.861Z,33.80
2023-03-19T05:32:19.388Z,33.90
2023-03-19T05:34:48.228Z,33.90
2023-03-19T05:37:17.665Z,34.00
2023-03-19T05:39:45.905Z,34.00
2023-03-19T05:42:15.145Z,33.90
2023-03-19T05:44:43.503Z,34.00
2023-03-19T05:47:12.621Z,34.00
2023-03-19T05:49:41.285Z,34.10
2023-03-19T05:52:09.413Z,34.10
2023-03-19T06:00:34.397Z,34.30
2023-03-19T06:03:05.143Z,34.30
2023-03-19T06:05:35.728Z,34.40
2023-03-19T06:08:04.701Z,34.30
2023-03-19T06:10:35.113Z,34.40
2023-03-19T06:13:09.507Z,34.30
2023-03-19T06:15:39.845Z,34.30
2023-03-19T06:18:11.478Z,34.40
2023-03-19T06:20:39.713Z,34.40
2023-03-19T06:23:09.435Z,34.50
2023-03-19T06:25:37.509Z,34.50
2023-03-19T06:28:06.591Z,34.60
2023-03-19T06:30:35.302Z,34.70
2023-03-19T06:33:06.026Z,34.70
2023-03-19T06:35:34.049Z,34.70
2023-03-19T06:38:02.005Z,34.70
2023-03-19T06:40:30.141Z,34.70
2023-03-19T06:42:58.592Z,34.70
2023-03-19T06:45:28.896Z,34.80
2023-03-19T06:47:57.491Z,34.80
2023-03-19T06:50:27.547Z,34.80
2023-03-19T06:52:55.867Z,34.90
2023-03-19T06:55:23.783Z,34.90
2023-03-19T06:57:52.513Z,34.90
2023-03-19T07:00:23.840Z,35.00
2023-03-19T07:02:52.159Z,35.00
2023-03-19T07:05:20.434Z,35.10
2023-03-19T07:07:50.064Z,35.10
2023-03-19T07:10:21.413Z,35.10
2023-03-19T07:12:49.738Z,35.10
2023-03-19T07:15:18.060Z,35.10
2023-03-19T07:17:52.456Z,35.00
2023-03-19T07:20:20.998Z,34.90
2023-03-19T07:22:54.426Z,34.80
2023-03-19T07:25:25.876Z,34.70
2023-03-19T07:27:59.904Z,34.60
2023-03-19T07:30:28.549Z,34.50
2023-03-19T07:32:57.456Z,34.40
2023-03-19T07:35:27.307Z,34.40
2023-03-19T07:37:55.824Z,34.30
2023-03-19T07:40:23.767Z,34.30
2023-03-19T07:42:52.591Z,34.30
2023-03-19T07:45:27.226Z,34.20
2023-03-19T07:48:04.372Z,34.20
2023-03-19T07:50:42.175Z,34.20
2023-03-19T07:53:13.243Z,34.20
2023-03-19T07:55:41.339Z,34.10
2023-03-19T07:58:10.544Z,34.20
2023-03-19T08:00:41.792Z,34.10
2023-03-19T08:03:16.813Z,34.10
2023-03-19T08:05:46.967Z,34.10
2023-03-19T08:08:16.518Z,34.00
2023-03-19T08:10:44.612Z,34.00
2023-03-19T08:13:16.761Z,34.00
2023-03-19T08:15:45.118Z,34.00
2023-03-19T08:18:15.268Z,33.90
2023-03-19T08:20:50.454Z,33.90
2023-03-19T08:23:24.233Z,33.90
2023-03-19T08:26:04.588Z,33.90
2023-03-19T08:29:38.627Z,34.00
2023-03-19T08:31:29.593Z,34.00
2023-03-19T08:34:13.042Z,34.00
2023-03-19T08:36:50.846Z,34.10
2023-03-19T08:39:27.247Z,34.20
2023-03-19T08:41:55.946Z,34.10
2023-03-19T08:44:25.708Z,34.30
2023-03-19T08:46:53.434Z,34.30
2023-03-19T08:49:22.044Z,34.30
2023-03-19T08:51:51.614Z,34.30
2023-03-19T08:54:23.060Z,34.30
2023-03-19T08:59:38.007Z,34.40
2023-03-19T09:02:08.062Z,34.40
2023-03-19T09:04:39.300Z,34.50
2023-03-19T09:07:07.448Z,34.50
2023-03-19T09:09:35.656Z,34.60
2023-03-19T09:12:03.708Z,34.60
2023-03-19T09:14:34.717Z,34.50
2023-03-19T09:17:07.003Z,34.50
2023-03-19T09:19:36.640Z,34.50
2023-03-19T09:22:05.831Z,34.50
2023-03-19T09:24:34.043Z,34.40
2023-03-19T09:27:03.026Z,34.40
2023-03-19T09:29:31.296Z,34.40
2023-03-19T09:32:01.631Z,34.30
2023-03-19T09:34:30.005Z,34.30
2023-03-19T09:36:58.019Z,34.30
2023-03-19T09:39:26.604Z,34.20
2023-03-19T09:42:10.102Z,34.20
2023-03-19T09:44:45.684Z,34.10
2023-03-19T09:47:28.256Z,34.00
2023-03-19T09:50:09.408Z,34.00
2023-03-19T09:53:06.801Z,34.00
2023-03-19T09:55:54.390Z,34.00
2023-03-19T09:58:43.867Z,33.90
2023-03-19T10:01:29.855Z,33.90
2023-03-19T10:04:18.755Z,33.80
2023-03-19T10:06:50.655Z,33.80
2023-03-19T10:09:27.268Z,33.70
2023-03-19T10:12:54.598Z,33.70
2023-03-19T10:15:34.079Z,33.60
2023-03-19T10:18:11.968Z,33.50
2023-03-19T10:21:12.483Z,33.50
2023-03-19T10:23:49.639Z,33.50
2023-03-19T10:26:20.607Z,33.40
2023-03-19T10:29:07.132Z,33.30
2023-03-19T10:31:51.876Z,33.30
2023-03-19T10:34:36.726Z,33.30
2023-03-19T10:37:08.507Z,33.20
2023-03-19T10:39:39.217Z,33.20
2023-03-19T10:42:22.888Z,33.20
2023-03-19T10:45:01.242Z,33.20
2023-03-19T10:47:29.294Z,33.10
2023-03-19T10:49:58.489Z,33.10
2023-03-19T10:52:32.426Z,33.00
2023-03-19T10:55:15.167Z,33.00
2023-03-19T10:57:53.396Z,33.00
2023-03-19T11:00:24.969Z,33.00
2023-03-19T11:02:56.618Z,33.00
2023-03-19T11:05:32.014Z,32.90
2023-03-19T11:08:05.840Z,32.90
2023-03-19T11:10:37.906Z,32.80
2023-03-19T11:13:18.378Z,32.90
2023-03-19T11:15:49.236Z,32.80
2023-03-19T11:18:25.237Z,32.80
2023-03-19T11:21:04.978Z,32.80
2023-03-19T11:23:39.861Z,32.80
2023-03-19T11:26:08.027Z,32.70
2023-03-19T11:28:38.352Z,32.70
2023-03-19T11:31:06.732Z,32.60
2023-03-19T11:34:02.399Z,32.60
2023-03-19T11:36:39.745Z,32.60
2023-03-19T11:39:31.537Z,32.50
2023-03-19T11:42:20.311Z,32.50
2023-03-19T11:45:00.701Z,32.40
2023-03-19T11:47:32.764Z,32.40
2023-03-19T11:50:27.112Z,32.40
2023-03-19T11:53:11.669Z,32.30
2023-03-19T11:56:13.681Z,32.30
2023-03-19T11:59:21.430Z,32.20
2023-03-19T12:02:22.068Z,32.20
2023-03-19T12:05:20.930Z,32.20
2023-03-19T12:08:16.019Z,32.10
2023-03-19T12:11:07.572Z,32.10
2023-03-19T12:14:09.231Z,32.10
2023-03-19T12:17:16.726Z,32.00
2023-03-19T12:20:12.738Z,31.90
2023-03-19T12:22:54.712Z,31.90
2023-03-19T12:25:30.100Z,31.90
2023-03-19T12:28:16.697Z,31.80
2023-03-19T12:31:09.533Z,31.80
2023-03-19T12:33:57.978Z,31.70
2023-03-19T12:36:44.343Z,31.70
2023-03-19T12:39:23.104Z,31.70
2023-03-19T12:41:52.741Z,31.70
2023-03-19T12:44:34.860Z,31.60
2023-03-19T12:47:09.395Z,31.60
2023-03-19T12:50:01.645Z,31.50
2023-03-19T12:52:40.232Z,31.40
2023-03-19T12:55:17.869Z,31.40
2023-03-19T12:58:20.013Z,31.40
2023-03-19T13:01:00.016Z,31.30
2023-03-19T13:03:52.815Z,31.20
2023-03-19T13:06:28.632Z,31.20
2023-03-19T13:09:05.304Z,31.10
2023-03-19T13:11:54.788Z,31.00
2023-03-19T13:14:30.414Z,31.00
2023-03-19T13:17:25.957Z,30.90
2023-03-19T13:19:56.556Z,30.90
2023-03-19T13:22:33.597Z,30.80
2023-03-19T13:25:06.135Z,30.80
2023-03-19T13:27:36.791Z,30.70
2023-03-19T13:30:18.492Z,30.70
2023-03-19T13:33:07.145Z,30.70
2023-03-19T13:35:50.489Z,30.60
2023-03-19T13:38:27.643Z,30.60
2023-03-19T13:40:58.093Z,30.50
2023-03-19T13:43:29.444Z,30.50
2023-03-19T13:46:12.827Z,30.50
2023-03-19T13:48:46.784Z,30.40
2023-03-19T13:51:25.473Z,30.40
2023-03-19T13:54:01.600Z,30.30
2023-03-19T13:56:30.669Z,30.30
2023-03-19T13:59:19.972Z,30.30
2023-03-19T14:01:48.605Z,30.20
2023-03-19T14:04:37.649Z,30.20
2023-03-19T14:07:27.976Z,30.20
2023-03-19T14:10:01.304Z,30.10
2023-03-19T14:12:41.986Z,30.10
2023-03-19T14:15:10.133Z,30.00
2023-03-19T14:18:08.042Z,30.00
2023-03-19T14:21:08.827Z,30.00
2023-03-19T14:23:45.927Z,29.90
2023-03-19T14:26:29.880Z,29.80
2023-03-19T14:29:07.084Z,29.80
2023-03-19T14:31:58.625Z,29.80
2023-03-19T14:34:42.107Z,29.80
2023-03-19T14:37:25.420Z,29.80
2023-03-19T14:40:00.881Z,29.70
2023-03-19T14:42:40.260Z,29.70
2023-03-19T14:45:21.657Z,29.70
2023-03-19T14:48:08.353Z,29.70
2023-03-19T14:50:59.451Z,29.70
2023-03-19T14:53:37.735Z,29.70
2023-03-19T14:56:19.713Z,29.70
2023-03-19T14:59:04.040Z,29.70
2023-03-19T15:01:34.129Z,29.70
2023-03-19T15:04:14.887Z,29.70
2023-03-19T15:06:51.390Z,29.60
2023-03-19T15:09:33.351Z,29.60
2023-03-19T15:12:36.329Z,29.60
2023-03-19T15:15:26.055Z,29.60
2023-03-19T15:18:04.052Z,29.50
2023-03-19T15:20:43.843Z,29.50
2023-03-19T15:23:26.381Z,29.50
2023-03-19T15:26:03.712Z,29.50
2023-03-19T15:28:45.834Z,29.50
2023-03-19T15:31:31.109Z,29.50
2023-03-19T15:34:17.368Z,29.50
2023-03-19T15:36:47.956Z,29.50
2023-03-19T15:39:20.305Z,29.50
2023-03-19T15:41:53.350Z,29.40
2023-03-19T15:44:36.852Z,29.40
2023-03-19T15:47:07.780Z,29.40
2023-03-19T15:49:43.694Z,29.30
2023-03-19T15:52:16.261Z,29.30
2023-03-19T15:54:44.499Z,29.30
2023-03-19T15:57:15.458Z,29.30
2023-03-19T15:59:44.464Z,29.20
2023-03-19T16:02:28.276Z,29.20
2023-03-19T16:05:20.451Z,29.20
2023-03-19T16:07:47.117Z,29.20
2023-03-19T16:10:47.287Z,29.20
2023-03-19T16:13:31.155Z,29.10
2023-03-19T16:16:06.935Z,29.10
2023-03-19T16:18:50.831Z,29.00
2023-03-19T16:21:28.715Z,29.00
2023-03-19T16:24:19.614Z,29.00
2023-03-19T16:26:50.361Z,28.90
2023-03-19T16:29:31.784Z,28.90
2023-03-19T16:32:19.709Z,28.90
2023-03-19T16:34:51.232Z,28.90
2023-03-19T16:37:52.072Z,28.90
2023-03-19T16:40:26.750Z,28.90
2023-03-19T16:42:56.715Z,28.90
2023-03-19T16:45:28.990Z,28.90
2023-03-19T16:47:59.581Z,28.80
2023-03-19T16:50:35.749Z,28.80
2023-03-19T16:53:07.715Z,28.80
2023-03-19T16:55:37.339Z,28.80
2023-03-19T16:58:30.737Z,28.80
2023-03-19T17:00:59.378Z,28.80
2023-03-19T17:03:31.518Z,28.80
2023-03-19T17:05:59.678Z,28.80
2023-03-19T17:08:27.786Z,28.80
2023-03-19T17:10:58.376Z,28.70
2023-03-19T17:13:30.135Z,28.80
2023-03-19T17:16:07.722Z,28.70
2023-03-19T17:18:38.857Z,28.70
2023-03-19T17:21:12.661Z,28.60
2023-03-19T17:23:41.232Z,28.70
2023-03-19T17:26:24.368Z,28.60
2023-03-19T17:28:53.996Z,28.60
2023-03-19T17:31:24.316Z,28.60
2023-03-19T17:33:56.017Z,28.50
2023-03-19T17:36:24.160Z,28.50
2023-03-19T17:38:54.845Z,28.50
2023-03-19T17:41:24.299Z,28.50
2023-03-19T17:43:52.569Z,28.40
2023-03-19T17:46:24.366Z,28.40
2023-03-19T17:48:52.955Z,28.40
2023-03-19T17:51:21.623Z,28.40
2023-03-19T17:53:52.262Z,28.30
2023-03-19T17:56:25.791Z,28.30
2023-03-19T17:58:54.333Z,28.30
2023-03-19T18:01:24.952Z,28.20
2023-03-19T18:03:58.452Z,28.20
2023-03-19T18:06:40.580Z,28.20
2023-03-19T18:09:13.284Z,28.20
2023-03-19T18:11:41.236Z,28.10
2023-03-19T18:14:09.176Z,28.10
2023-03-19T18:16:37.257Z,28.10
2023-03-19T18:19:11.855Z,28.00
2023-03-19T18:21:40.079Z,28.00
2023-03-19T18:24:09.817Z,28.00
2023-03-19T18:26:37.790Z,27.90
2023-03-19T18:29:05.905Z,27.90
2023-03-19T18:31:33.965Z,27.90
2023-03-19T18:34:07.367Z,27.90
2023-03-19T18:36:36.292Z,27.90
2023-03-19T18:39:04.445Z,27.80
2023-03-19T18:41:32.840Z,27.80
2023-03-19T18:44:03.628Z,27.80
2023-03-19T18:46:33.387Z,27.80
2023-03-19T18:49:26.745Z,27.70
2023-03-19T18:52:02.545Z,27.70
2023-03-19T18:54:32.469Z,27.70
2023-03-19T18:57:03.615Z,27.60
2023-03-19T18:59:34.202Z,27.60
2023-03-19T19:02:20.477Z,27.60
2023-03-19T19:04:48.810Z,27.50
2023-03-19T19:07:17.726Z,27.50
2023-03-19T19:09:46.860Z,27.50
2023-03-19T19:12:18.405Z,27.50
2023-03-19T19:14:47.146Z,27.50
2023-03-19T19:17:24.891Z,27.40
2023-03-19T19:19:52.851Z,27.40
2023-03-19T19:22:21.812Z,27.40
2023-03-19T19:24:50.615Z,27.40
2023-03-19T19:27:22.495Z,27.40
2023-03-19T19:29:51.301Z,27.40
2023-03-19T19:32:31.027Z,27.40
2023-03-19T19:34:59.148Z,27.40
2023-03-19T19:37:27.092Z,27.40
2023-03-19T19:39:55.647Z,27.40
2023-03-19T19:42:24.111Z,27.40
2023-03-19T19:44:56.215Z,27.40
2023-03-19T19:47:24.285Z,27.40
2023-03-19T19:49:52.532Z,27.30
2023-03-19T19:52:21.200Z,27.30
2023-03-19T19:54:49.341Z,27.20
2023-03-19T19:57:24.410Z,27.20
2023-03-19T19:59:53.738Z,27.20
2023-03-19T20:02:29.825Z,27.30
2023-03-19T20:04:58.740Z,27.30
2023-03-19T20:07:27.451Z,27.20
2023-03-19T20:09:56.527Z,27.20
2023-03-19T20:12:31.281Z,27.20
2023-03-19T20:15:00.149Z,27.20
2023-03-19T20:17:29.438Z,27.20
2023-03-19T20:19:58.716Z,27.10
2023-03-19T20:22:26.751Z,27.10
2023-03-19T20:24:55.658Z,27.10
2023-03-19T20:27:32.536Z,27.10
2023-03-19T20:30:00.623Z,27.10
2023-03-19T20:32:39.090Z,27.00
2023-03-19T20:35:17.665Z,27.00
2023-03-19T20:37:46.793Z,27.00
2023-03-19T20:40:18.040Z,27.00
2023-03-19T20:42:53.528Z,27.00
2023-03-19T20:45:24.904Z,27.00
2023-03-19T20:47:53.427Z,26.90
2023-03-19T20:50:30.442Z,26.90
2023-03-19T20:53:01.456Z,26.90
2023-03-19T20:55:33.045Z,26.90
2023-03-19T20:58:06.773Z,26.80
2023-03-19T21:00:55.063Z,26.80
2023-03-19T21:03:26.523Z,26.80
2023-03-19T21:06:03.385Z,26.80
2023-03-19T21:08:42.702Z,26.80
2023-03-19T21:11:19.351Z,26.80
2023-03-19T21:13:48.699Z,26.80
2023-03-19T21:16:22.286Z,26.70
2023-03-19T21:18:52.144Z,26.70
2023-03-19T21:21:27.356Z,26.70
2023-03-19T21:24:12.468Z,26.70
2023-03-19T21:26:41.758Z,26.70
2023-03-19T21:29:21.124Z,26.70
2023-03-19T21:31:49.497Z,26.70
2023-03-19T21:34:17.833Z,26.70
2023-03-19T21:36:47.870Z,26.70
2023-03-19T21:39:18.016Z,26.70
2023-03-19T21:41:47.384Z,26.70
2023-03-19T21:44:20.363Z,26.60
2023-03-19T21:46:49.621Z,26.60
2023-03-19T21:49:18.710Z,26.60
2023-03-19T21:51:47.430Z,26.50
2023-03-19T21:54:15.917Z,26.60
2023-03-19T21:56:48.582Z,26.50
2023-03-19T21:59:23.113Z,26.50
2023-03-19T22:01:51.281Z,26.50
2023-03-19T22:04:19.575Z,26.50
2023-03-19T22:06:49.392Z,26.50
2023-03-19T22:09:17.424Z,26.50
2023-03-19T22:11:46.430Z,26.40
2023-03-19T22:14:28.688Z,26.50
2023-03-19T22:16:58.158Z,26.50
2023-03-19T22:19:26.432Z,26.50
2023-03-19T22:21:54.461Z,26.50
2023-03-19T22:24:22.473Z,26.50
2023-03-19T22:26:57.811Z,26.50
2023-03-19T22:29:27.047Z,26.50
2023-03-19T22:31:58.507Z,26.40
2023-03-19T22:34:28.320Z,26.40
2023-03-19T22:36:56.381Z,26.40
2023-03-19T22:39:25.552Z,26.40
2023-03-19T22:41:53.612Z,26.40
2023-03-19T22:44:28.343Z,26.40
2023-03-19T22:46:57.922Z,26.40
2023-03-19T22:49:26.693Z,26.50
2023-03-19T22:51:55.939Z,26.40
2023-03-19T22:54:24.070Z,26.40
2023-03-19T22:56:51.944Z,26.40
2023-03-19T22:59:20.567Z,26.40
2023-03-19T23:01:48.948Z,26.40
2023-03-19T23:04:26.524Z,26.40
2023-03-19T23:06:56.628Z,26.40
2023-03-19T23:09:29.685Z,26.40
2023-03-19T23:11:59.665Z,26.40
2023-03-19T23:14:30.920Z,26.40
2023-03-19T23:17:03.782Z,26.40
2023-03-19T23:19:37.528Z,26.40
2023-03-19T23:22:07.810Z,26.40
2023-03-19T23:24:35.891Z,26.40
2023-03-19T23:27:04.793Z,26.40
2023-03-19T23:29:40.067Z,26.40
2023-03-19T23:32:10.383Z,26.40
2023-03-19T23:34:55.676Z,26.40
2023-03-19T23:37:26.513Z,26.40
2023-03-19T23:39:54.544Z,26.30
2023-03-19T23:42:31.863Z,26.30
2023-03-19T23:45:04.038Z,26.30
2023-03-19T23:47:32.797Z,26.30
2023-03-19T23:50:00.821Z,26.30
2023-03-19T23:52:28.872Z,26.30
2023-03-19T23:54:57.840Z,26.30
2023-03-19T23:57:27.148Z,26.30
2023-03-19T23:59:55.406Z,26.30
